PH-0054 weather

Public forecast

Using degrees Celsius for public forecast. Weather courtesy of forecast.io.

Closest aviation weather report (METAR) to Port of Manila South Harbor Pier 17 Helipad

Closest report is Ninoy Aquino International Airport, 5.2 nm (9.5 km) SSE. Retrieved 2020/08/11 08:00 UTC (1 hour ago):

RPLL 110800Z AUTO 00000KT 9999 FEW210/// 30/24 Q1010

Closest aviation forecast (TAF) to Port of Manila South Harbor Pier 17 Helipad

Closest forecast is Ninoy Aquino International Airport, 5.2 nm (9.5 km) SSE. Retrieved 2020/08/11 06:22 UTC (3 hours ago):

TAF RPLL 110500Z 1106/1212 10008KT 9999 FEW022 SCT100 BKN300 TX31/11006Z TN25/1121Z TEMPO 1106/1112 VRB05KT 9000 -SHRA FEW020CB SCT020 BKN100 TEMPO 1112/1118 22012KT FEW020CB FEW022 BKN100